Time;durP1;ratioP1;P1;durP2;ratioP2;P2;SDS_P1;SDS_P2;PMS_P1;PMS_P2;Temp;Humidity;BMP_temperature;BMP_pressure;BME280_temperature;BME280_humidity;BME280_pressure;Samples;Min_cycle;Max_cycle;Signal;HPM_P1;HPM_P2
2022/03/30 00:01:46;;;;;;;0.55;0.55;;;2.90;99.90;;;;;;5005842;28;20049;-73
2022/03/30 00:04:12;;;;;;;0.60;0.60;;;3.00;99.90;;;;;;5003615;28;20049;-73
2022/03/30 00:06:37;;;;;;;1.10;1.10;;;3.00;99.90;;;;;;4995052;28;20048;-73
2022/03/30 00:09:03;;;;;;;0.57;0.57;;;3.00;99.90;;;;;;4993477;28;20077;-73
2022/03/30 00:11:28;;;;;;;0.60;0.60;;;3.10;99.90;;;;;;4995417;28;20041;-73
2022/03/30 00:13:54;;;;;;;0.68;0.68;;;3.20;99.90;;;;;;5011233;28;20401;-73
2022/03/30 00:16:20;;;;;;;0.68;0.68;;;3.20;99.90;;;;;;4995369;28;20045;-73
2022/03/30 00:18:45;;;;;;;0.60;0.60;;;3.20;99.90;;;;;;5008705;28;20044;-73
2022/03/30 00:21:11;;;;;;;0.80;0.80;;;3.30;99.90;;;;;;5006438;28;20076;-72
2022/03/30 00:23:36;;;;;;;0.60;0.60;;;3.30;99.90;;;;;;4994615;28;20045;-73
2022/03/30 00:26:02;;;;;;;0.68;0.68;;;3.40;99.90;;;;;;4994869;28;20053;-70
2022/03/30 00:28:28;;;;;;;1.13;1.13;;;3.40;99.90;;;;;;5017616;28;20096;-72
2022/03/30 00:30:55;;;;;;;0.50;0.50;;;3.50;99.90;;;;;;5011245;28;20052;-73
2022/03/30 00:33:21;;;;;;;2.72;2.53;;;3.50;99.90;;;;;;5011534;28;20053;-72
2022/03/30 00:35:46;;;;;;;27.15;8.15;;;3.60;99.90;;;;;;4995280;28;20049;-73
2022/03/30 00:38:13;;;;;;;0.68;0.68;;;3.60;99.90;;;;;;5011651;28;20044;-72
2022/03/30 00:40:38;;;;;;;0.57;0.57;;;3.70;99.90;;;;;;5009778;28;20049;-73
2022/03/30 00:43:04;;;;;;;2.30;2.20;;;3.80;99.90;;;;;;5011881;28;20477;-73
2022/03/30 00:45:30;;;;;;;1.00;0.98;;;3.80;99.90;;;;;;5011127;28;20048;-73
2022/03/30 00:47:56;;;;;;;0.73;0.73;;;3.90;99.90;;;;;;5011139;28;20048;-73
2022/03/30 00:50:23;;;;;;;0.75;0.75;;;3.90;99.90;;;;;;4994190;28;20037;-73
2022/03/30 00:52:51;;;;;;;0.70;0.70;;;4.00;99.90;;;;;;5011451;28;20385;-73
2022/03/30 00:55:17;;;;;;;0.60;0.60;;;4.10;99.90;;;;;;4990419;28;20057;-72
2022/03/30 00:57:45;;;;;;;0.70;0.70;;;4.10;99.90;;;;;;5027409;28;20041;-72
2022/03/30 01:00:14;;;;;;;0.60;0.60;;;4.20;99.90;;;;;;4992082;28;20079;-72
2022/03/30 01:02:43;;;;;;;1.45;1.45;;;4.20;99.90;;;;;;5008133;28;20049;-72
2022/03/30 01:05:09;;;;;;;0.57;0.57;;;4.20;99.90;;;;;;4994197;28;20041;-72
2022/03/30 01:07:35;;;;;;;1.80;1.70;;;4.30;99.90;;;;;;4994411;28;20456;-72
2022/03/30 01:10:03;;;;;;;4.93;2.97;;;4.40;99.90;;;;;;4994453;28;20149;-72
2022/03/30 01:12:30;;;;;;;0.70;0.70;;;4.40;99.90;;;;;;5011073;28;20042;-72
2022/03/30 01:14:56;;;;;;;0.68;0.68;;;4.40;99.90;;;;;;4994224;28;20048;-72
2022/03/30 01:17:22;;;;;;;6.53;3.28;;;4.50;99.90;;;;;;5010851;28;20386;-72
2022/03/30 01:19:50;;;;;;;2.30;1.88;;;4.50;99.90;;;;;;5012272;28;20055;-72
2022/03/30 01:22:15;;;;;;;0.93;0.93;;;4.50;99.90;;;;;;5010558;28;20049;-72
2022/03/30 01:24:41;;;;;;;6.95;4.00;;;4.50;99.90;;;;;;5006893;28;20057;-72
2022/03/30 01:27:07;;;;;;;1.42;1.35;;;4.50;99.90;;;;;;4990624;28;20056;-72
2022/03/30 01:32:29;;;;;;;0.82;0.82;;;4.60;99.90;;;;;;5004433;28;20049;-72
2022/03/30 01:34:57;;;;;;;0.60;0.60;;;4.60;99.90;;;;;;4995586;28;20042;-72
2022/03/30 01:37:24;;;;;;;0.60;0.60;;;4.60;99.90;;;;;;5007384;28;20034;-72
2022/03/30 01:39:50;;;;;;;1.55;1.48;;;4.60;99.90;;;;;;5006988;28;20056;-72
2022/03/30 01:42:16;;;;;;;0.50;0.50;;;4.70;99.90;;;;;;4990454;28;20045;-72
2022/03/30 01:44:42;;;;;;;0.70;0.70;;;4.70;99.90;;;;;;5013821;28;20515;-72
2022/03/30 01:47:10;;;;;;;1.20;1.20;;;4.70;99.90;;;;;;4990322;28;20157;-74
2022/03/30 01:49:36;;;;;;;0.70;0.70;;;4.70;99.90;;;;;;5001940;28;20467;-72
2022/03/30 01:52:02;;;;;;;0.57;0.57;;;4.70;99.90;;;;;;4990918;28;20383;-72
2022/03/30 01:54:28;;;;;;;0.60;0.60;;;4.70;99.90;;;;;;4990873;28;20037;-72
2022/03/30 01:56:55;;;;;;;0.80;0.80;;;4.70;99.90;;;;;;4990937;28;20117;-72
2022/03/30 01:59:22;;;;;;;12.43;4.28;;;4.80;99.90;;;;;;5006034;28;20213;-72
2022/03/30 02:01:48;;;;;;;1.33;1.08;;;4.80;99.90;;;;;;5006196;28;20509;-72
2022/03/30 02:04:14;;;;;;;0.45;0.45;;;4.80;99.90;;;;;;5010190;28;20041;-71
2022/03/30 02:06:40;;;;;;;0.52;0.52;;;4.80;99.90;;;;;;4994771;28;20096;-72
2022/03/30 02:09:07;;;;;;;0.75;0.75;;;4.80;99.90;;;;;;4994983;28;20046;-72
2022/03/30 02:11:34;;;;;;;3.60;3.00;;;4.90;99.90;;;;;;5010361;28;20049;-72
2022/03/30 02:14:00;;;;;;;2.40;2.17;;;4.90;99.90;;;;;;5010850;28;20401;-72
2022/03/30 02:16:26;;;;;;;0.70;0.70;;;4.90;99.90;;;;;;5023041;28;20041;-72
2022/03/30 02:18:52;;;;;;;3.65;2.95;;;4.90;99.90;;;;;;4988792;28;20136;-72
2022/03/30 02:21:18;;;;;;;3.05;2.05;;;4.90;99.90;;;;;;5011138;28;20038;-72
2022/03/30 02:23:45;;;;;;;16.20;3.75;;;5.00;99.90;;;;;;5019107;28;20043;-73
2022/03/30 02:26:13;;;;;;;2.78;2.60;;;5.00;99.90;;;;;;5026007;28;20068;-72
2022/03/30 02:28:39;;;;;;;3.90;3.60;;;5.00;99.90;;;;;;5002393;28;20034;-72
2022/03/30 02:31:05;;;;;;;2.90;2.25;;;5.10;99.90;;;;;;5011128;28;20356;-72
2022/03/30 02:33:31;;;;;;;0.47;0.47;;;5.10;99.90;;;;;;4994379;28;20049;-72
2022/03/30 02:35:56;;;;;;;4.25;3.88;;;5.10;99.90;;;;;;4994323;28;20049;-72
2022/03/30 02:38:22;;;;;;;4.70;2.67;;;5.20;99.90;;;;;;5010778;28;20100;-72
2022/03/30 02:40:48;;;;;;;0.70;0.70;;;5.20;99.90;;;;;;5010393;28;20524;-72
2022/03/30 02:43:16;;;;;;;3.25;2.40;;;5.20;99.90;;;;;;5004675;28;20060;-72
2022/03/30 02:45:43;;;;;;;2.50;2.30;;;5.30;99.90;;;;;;5026976;28;20045;-72
2022/03/30 02:48:17;;;;;;;1.92;1.77;;;5.30;99.90;;;;;;5009725;28;20052;-72
2022/03/30 02:50:45;;;;;;;0.75;0.75;;;5.40;99.90;;;;;;5009954;28;20045;-72
2022/03/30 02:53:11;;;;;;;3.83;2.97;;;5.40;99.90;;;;;;5009898;28;20045;-72
2022/03/30 02:55:37;;;;;;;0.60;0.60;;;5.50;99.90;;;;;;5009718;28;20087;-73
2022/03/30 02:58:04;;;;;;;2.40;1.30;;;5.50;99.90;;;;;;5009451;28;20394;-72
2022/03/30 03:00:31;;;;;;;0.60;0.60;;;5.60;99.90;;;;;;5006073;28;20056;-73
2022/03/30 03:02:57;;;;;;;0.60;0.60;;;5.60;99.90;;;;;;5010222;28;20068;-72
2022/03/30 03:05:23;;;;;;;0.50;0.50;;;5.70;99.90;;;;;;4993526;28;20156;-72
2022/03/30 03:07:49;;;;;;;2.15;1.55;;;5.70;99.90;;;;;;5009561;28;20141;-72
2022/03/30 03:10:14;;;;;;;0.93;0.93;;;5.70;99.90;;;;;;5009918;28;20068;-72
2022/03/30 03:12:40;;;;;;;3.03;1.13;;;5.70;99.90;;;;;;5009111;28;20033;-72
2022/03/30 03:15:06;;;;;;;0.50;0.50;;;5.70;99.90;;;;;;4992485;28;20045;-72
2022/03/30 03:17:32;;;;;;;1.13;1.00;;;5.70;99.90;;;;;;4991775;28;20045;-72
2022/03/30 03:19:57;;;;;;;0.50;0.50;;;5.70;99.90;;;;;;4998935;28;20046;-72
2022/03/30 03:22:23;;;;;;;0.50;0.50;;;5.70;99.90;;;;;;5016678;28;20500;-72
2022/03/30 03:24:48;;;;;;;0.70;0.70;;;5.70;99.90;;;;;;5009117;28;20064;-72
2022/03/30 03:27:14;;;;;;;0.55;0.55;;;5.70;99.90;;;;;;4993084;28;20046;-72
2022/03/30 03:29:40;;;;;;;0.60;0.60;;;5.60;99.90;;;;;;5006054;28;20045;-72
2022/03/30 03:32:06;;;;;;;0.50;0.50;;;5.60;99.90;;;;;;4980680;28;20042;-73
2022/03/30 03:34:32;;;;;;;0.60;0.60;;;5.60;99.90;;;;;;5025635;28;20099;-73
2022/03/30 03:36:58;;;;;;;0.50;0.50;;;5.60;99.90;;;;;;4993200;28;20315;-73
2022/03/30 03:39:23;;;;;;;0.50;0.50;;;5.60;99.90;;;;;;5009167;28;20045;-73
2022/03/30 03:41:49;;;;;;;0.50;0.50;;;5.60;99.90;;;;;;4992552;28;20044;-73
2022/03/30 03:44:14;;;;;;;0.70;0.70;;;5.60;99.90;;;;;;4992482;28;20034;-73
2022/03/30 03:46:40;;;;;;;1.48;0.95;;;5.60;99.90;;;;;;5009137;28;20038;-73
2022/03/30 03:49:05;;;;;;;0.60;0.60;;;5.60;99.90;;;;;;4992348;28;20478;-73
2022/03/30 03:51:31;;;;;;;0.50;0.50;;;5.60;99.90;;;;;;5008853;28;20046;-73
2022/03/30 03:53:57;;;;;;;0.50;0.50;;;5.50;99.90;;;;;;4992344;28;20879;-73
2022/03/30 03:56:22;;;;;;;0.50;0.50;;;5.50;99.90;;;;;;4991351;28;20048;-73
2022/03/30 03:58:49;;;;;;;0.63;0.63;;;5.50;99.90;;;;;;4992887;28;20481;-73
2022/03/30 04:01:15;;;;;;;0.60;0.60;;;5.50;99.90;;;;;;5008120;28;20051;-73
2022/03/30 04:03:42;;;;;;;0.45;0.45;;;5.50;99.90;;;;;;5008663;28;20072;-72
2022/03/30 04:06:08;;;;;;;0.50;0.50;;;5.50;99.90;;;;;;5008593;28;20042;-73
2022/03/30 04:08:35;;;;;;;0.52;0.52;;;5.40;99.90;;;;;;4991897;28;20049;-72
2022/03/30 04:11:00;;;;;;;0.50;0.50;;;5.40;99.90;;;;;;4991695;28;20383;-73
2022/03/30 04:13:26;;;;;;;0.65;0.65;;;5.40;99.90;;;;;;5008274;28;20048;-73
2022/03/30 04:15:52;;;;;;;0.50;0.50;;;5.40;99.90;;;;;;4991073;28;20041;-73
2022/03/30 04:18:17;;;;;;;0.52;0.52;;;5.40;99.90;;;;;;4998631;28;20065;-73
2022/03/30 04:20:46;;;;;;;0.50;0.50;;;5.40;99.90;;;;;;5008958;28;20056;-73
2022/03/30 04:23:11;;;;;;;0.60;0.60;;;5.40;99.90;;;;;;5007940;28;20037;-73
2022/03/30 04:25:37;;;;;;;0.55;0.55;;;5.40;99.90;;;;;;5006241;28;20065;-73
2022/03/30 04:28:03;;;;;;;0.60;0.60;;;5.30;99.90;;;;;;4992417;28;20050;-72
2022/03/30 04:30:30;;;;;;;0.47;0.47;;;5.30;99.90;;;;;;4988523;28;20086;-73
2022/03/30 04:32:55;;;;;;;0.50;0.50;;;5.30;99.90;;;;;;5006565;28;20112;-73
2022/03/30 04:35:27;;;;;;;0.50;0.50;;;5.30;99.90;;;;;;5008828;28;20128;-73
2022/03/30 04:37:55;;;;;;;0.60;0.60;;;5.30;99.90;;;;;;5021237;28;20065;-73
2022/03/30 04:40:22;;;;;;;0.60;0.60;;;5.20;99.90;;;;;;5008297;28;20436;-72
2022/03/30 04:42:49;;;;;;;0.50;0.50;;;5.20;99.90;;;;;;5008174;28;20046;-72
2022/03/30 04:45:14;;;;;;;0.60;0.60;;;5.10;99.90;;;;;;5008007;28;20073;-73
2022/03/30 04:47:40;;;;;;;1.17;0.70;;;5.00;99.90;;;;;;4991491;28;20159;-73
2022/03/30 04:50:06;;;;;;;0.50;0.50;;;4.90;99.90;;;;;;5008110;28;20089;-73
2022/03/30 04:52:32;;;;;;;0.47;0.47;;;4.80;99.90;;;;;;5007753;28;20068;-73
2022/03/30 04:54:58;;;;;;;0.55;0.55;;;4.80;99.90;;;;;;4994451;28;20041;-73
2022/03/30 04:57:24;;;;;;;0.50;0.50;;;4.70;99.90;;;;;;5008118;28;20038;-73
2022/03/30 04:59:50;;;;;;;0.60;0.60;;;4.60;99.90;;;;;;4990310;28;20046;-72
2022/03/30 05:02:15;;;;;;;0.60;0.60;;;4.50;99.90;;;;;;4991567;28;20513;-72
2022/03/30 05:04:41;;;;;;;0.60;0.60;;;4.40;99.90;;;;;;4991314;28;20068;-72
2022/03/30 05:07:06;;;;;;;0.40;0.40;;;4.40;99.90;;;;;;5007312;28;20089;-72
2022/03/30 05:09:32;;;;;;;0.60;0.60;;;4.30;99.90;;;;;;4990325;28;20520;-72
2022/03/30 05:11:58;;;;;;;0.60;0.60;;;4.20;99.90;;;;;;5007907;28;20041;-72
2022/03/30 05:14:23;;;;;;;0.70;0.70;;;4.10;99.90;;;;;;5008975;28;20048;-73
2022/03/30 05:16:49;;;;;;;0.60;0.60;;;4.10;99.90;;;;;;4991028;28;20516;-73
2022/03/30 05:19:14;;;;;;;0.60;0.60;;;4.00;99.90;;;;;;4990628;28;20092;-73
2022/03/30 05:21:40;;;;;;;0.70;0.70;;;4.00;99.90;;;;;;5003181;28;20128;-73
2022/03/30 05:24:06;;;;;;;1.65;1.20;;;4.00;99.90;;;;;;4990742;28;20149;-73
2022/03/30 05:26:32;;;;;;;0.50;0.50;;;4.00;99.90;;;;;;4981102;28;20057;-73
2022/03/30 05:28:57;;;;;;;0.50;0.50;;;4.10;99.90;;;;;;5006943;28;20049;-73
2022/03/30 05:31:23;;;;;;;17.92;1.17;;;4.10;99.90;;;;;;5007265;28;20037;-73
2022/03/30 05:33:48;;;;;;;0.50;0.50;;;4.10;99.90;;;;;;5004298;28;20557;-73
2022/03/30 05:36:14;;;;;;;0.50;0.50;;;4.10;99.90;;;;;;4996535;28;20034;-73
2022/03/30 05:38:40;;;;;;;0.60;0.60;;;4.00;99.90;;;;;;5007376;28;20140;-73
2022/03/30 05:41:05;;;;;;;0.60;0.60;;;4.00;99.90;;;;;;4990504;28;20128;-73
2022/03/30 05:43:31;;;;;;;0.60;0.60;;;4.00;99.90;;;;;;5007405;28;20520;-73
2022/03/30 05:45:56;;;;;;;0.60;0.60;;;3.90;99.90;;;;;;4990671;28;20113;-73
2022/03/30 05:48:24;;;;;;;0.63;0.63;;;4.00;99.90;;;;;;4986652;28;20537;-73
2022/03/30 05:50:51;;;;;;;0.60;0.60;;;3.90;99.90;;;;;;5006942;28;20042;-73
2022/03/30 05:53:17;;;;;;;0.70;0.70;;;3.90;99.90;;;;;;5007336;28;20117;-73
2022/03/30 05:55:46;;;;;;;0.70;0.70;;;3.90;99.90;;;;;;4985127;28;20117;-73
2022/03/30 05:58:13;;;;;;;0.70;0.70;;;3.90;99.90;;;;;;4991223;28;20089;-73
2022/03/30 06:00:38;;;;;;;0.70;0.70;;;3.90;99.90;;;;;;5005981;28;20041;-73
2022/03/30 06:03:04;;;;;;;0.60;0.60;;;3.90;99.90;;;;;;4991013;28;20046;-73
2022/03/30 06:05:30;;;;;;;0.60;0.60;;;3.90;99.90;;;;;;4985473;28;20049;-73
2022/03/30 06:07:58;;;;;;;0.70;0.70;;;3.90;99.90;;;;;;4990496;28;20042;-73
2022/03/30 06:10:26;;;;;;;0.50;0.50;;;4.00;99.90;;;;;;5006981;28;20149;-73
2022/03/30 06:12:52;;;;;;;0.70;0.70;;;4.10;99.90;;;;;;5003486;28;20402;-73
2022/03/30 06:15:18;;;;;;;0.60;0.60;;;4.10;99.90;;;;;;4998393;28;20041;-73
2022/03/30 06:17:43;;;;;;;0.63;0.63;;;4.10;99.90;;;;;;4989574;28;20052;-73
2022/03/30 06:20:10;;;;;;;0.70;0.70;;;4.20;99.90;;;;;;4990224;28;20510;-73
2022/03/30 06:22:36;;;;;;;0.70;0.70;;;4.20;99.90;;;;;;5007244;28;20310;-73
2022/03/30 06:25:02;;;;;;;0.60;0.60;;;4.30;99.90;;;;;;4989806;28;20057;-73
2022/03/30 06:27:29;;;;;;;0.70;0.70;;;4.30;99.90;;;;;;4986924;28;20117;-73
2022/03/30 06:29:55;;;;;;;0.60;0.60;;;4.40;99.90;;;;;;5015489;28;20038;-73
2022/03/30 06:32:20;;;;;;;0.60;0.60;;;4.40;99.90;;;;;;5003272;28;20085;-73
2022/03/30 06:34:46;;;;;;;0.50;0.50;;;4.50;99.90;;;;;;4984130;28;20073;-73
2022/03/30 06:37:12;;;;;;;0.55;0.55;;;4.70;99.90;;;;;;5007371;28;20501;-73
2022/03/30 06:39:37;;;;;;;0.60;0.60;;;4.80;99.90;;;;;;5006288;28;20054;-73
2022/03/30 06:42:04;;;;;;;0.50;0.50;;;4.90;99.90;;;;;;4989892;28;20108;-73
2022/03/30 06:44:31;;;;;;;0.50;0.50;;;5.00;99.90;;;;;;5007216;28;20060;-73
2022/03/30 06:46:58;;;;;;;0.60;0.60;;;5.20;99.90;;;;;;5006271;28;20053;-73
2022/03/30 06:49:23;;;;;;;0.90;0.90;;;5.20;99.90;;;;;;5017505;28;20041;-74
2022/03/30 06:51:49;;;;;;;0.50;0.50;;;5.40;99.90;;;;;;5010142;28;20128;-73
2022/03/30 06:54:15;;;;;;;0.55;0.55;;;5.50;99.90;;;;;;4993741;28;20042;-73
2022/03/30 06:56:41;;;;;;;0.50;0.50;;;5.60;99.90;;;;;;5010691;28;20084;-73
2022/03/30 06:59:07;;;;;;;0.63;0.63;;;5.60;99.90;;;;;;4988281;28;20053;-73
2022/03/30 07:01:34;;;;;;;0.80;0.80;;;5.70;99.90;;;;;;4993456;28;20494;-73
2022/03/30 07:03:59;;;;;;;0.70;0.70;;;5.70;99.90;;;;;;5010319;28;20099;-73
2022/03/30 07:06:25;;;;;;;0.50;0.50;;;5.80;99.90;;;;;;4992917;28;20053;-73
2022/03/30 07:11:34;;;;;;;0.47;0.47;;;5.80;99.90;;;;;;5010027;28;20073;-73
2022/03/30 07:14:00;;;;;;;1.63;1.48;;;5.90;99.90;;;;;;4993972;28;20076;-74
2022/03/30 07:16:26;;;;;;;0.50;0.50;;;6.00;99.90;;;;;;5010067;28;20057;-73
2022/03/30 07:18:53;;;;;;;0.95;0.95;;;6.10;99.90;;;;;;4990598;28;20050;-73
2022/03/30 07:21:19;;;;;;;0.50;0.50;;;6.20;99.90;;;;;;4990440;28;20049;-73
2022/03/30 07:23:45;;;;;;;0.80;0.80;;;6.20;99.90;;;;;;4990104;28;20053;-73
2022/03/30 07:26:10;;;;;;;3.00;1.60;;;6.20;99.90;;;;;;4993186;28;20442;-73
2022/03/30 07:28:37;;;;;;;0.63;0.63;;;6.30;99.90;;;;;;5009764;28;20053;-74
2022/03/30 07:31:03;;;;;;;1.95;1.27;;;6.30;99.90;;;;;;5010265;28;20061;-74
2022/03/30 07:33:29;;;;;;;0.50;0.50;;;6.40;99.90;;;;;;5006665;28;20490;-74
2022/03/30 07:35:55;;;;;;;0.50;0.50;;;6.50;99.90;;;;;;4990820;28;20501;-73
2022/03/30 07:38:21;;;;;;;0.82;0.82;;;6.50;99.90;;;;;;4974541;28;20050;-73
2022/03/30 07:40:48;;;;;;;1.05;0.75;;;6.60;99.90;;;;;;4991850;28;20125;-73
2022/03/30 07:43:15;;;;;;;0.50;0.50;;;6.60;99.90;;;;;;4993064;28;20052;-72
2022/03/30 07:45:42;;;;;;;0.90;0.90;;;6.60;99.90;;;;;;5009718;28;20050;-72
2022/03/30 07:48:08;;;;;;;3.72;1.15;;;6.70;99.90;;;;;;5009828;28;20129;-73
2022/03/30 07:50:35;;;;;;;0.60;0.60;;;6.80;99.90;;;;;;5026265;28;20045;-72
2022/03/30 07:53:01;;;;;;;0.50;0.50;;;6.90;99.90;;;;;;5001067;28;20044;-73
2022/03/30 07:55:28;;;;;;;1.95;1.05;;;6.90;99.90;;;;;;4991103;28;20419;-73
2022/03/30 07:57:55;;;;;;;0.75;0.75;;;6.90;99.90;;;;;;5009184;28;20046;-72
2022/03/30 08:00:21;;;;;;;0.40;0.40;;;7.00;99.90;;;;;;5006197;28;20042;-72
2022/03/30 08:02:48;;;;;;;0.30;0.30;;;7.10;99.90;;;;;;4990588;28;20037;-73
2022/03/30 08:05:16;;;;;;;2.47;2.30;;;7.10;99.90;;;;;;4989527;28;20177;-74
2022/03/30 08:07:49;;;;;;;1.30;1.10;;;7.20;99.90;;;;;;4995785;28;20048;-73
2022/03/30 08:10:15;;;;;;;4.18;0.68;;;7.20;99.90;;;;;;4992620;28;20046;-74
2022/03/30 08:12:41;;;;;;;0.30;0.30;;;7.10;99.90;;;;;;5007849;28;20568;-74
2022/03/30 08:15:08;;;;;;;0.30;0.30;;;7.10;99.90;;;;;;4991194;28;20049;-73
2022/03/30 08:17:35;;;;;;;0.47;0.47;;;7.10;99.90;;;;;;4992162;28;20041;-73
2022/03/30 08:20:02;;;;;;;3.40;0.75;;;7.10;99.90;;;;;;5008700;28;20096;-74
2022/03/30 08:22:28;;;;;;;0.30;0.30;;;7.10;99.90;;;;;;4989161;28;20410;-73
2022/03/30 08:25:14;;;;;;;0.30;0.30;;;7.10;99.90;;;;;;5001289;28;20054;-73
2022/03/30 08:27:40;;;;;;;11.95;0.85;;;7.10;99.90;;;;;;4972607;28;20061;-73
2022/03/30 08:30:07;;;;;;;0.30;0.30;;;7.10;99.90;;;;;;5003043;28;20049;-73
2022/03/30 08:32:32;;;;;;;3.85;1.05;;;7.10;99.90;;;;;;5009233;28;20050;-73
2022/03/30 08:34:58;;;;;;;3.13;0.88;;;7.10;99.90;;;;;;4991560;28;20037;-73
2022/03/30 08:37:24;;;;;;;0.20;0.20;;;7.10;99.90;;;;;;5008642;28;20434;-73
2022/03/30 08:39:51;;;;;;;0.50;0.50;;;7.10;99.90;;;;;;4991382;28;20052;-74
2022/03/30 08:42:17;;;;;;;0.38;0.38;;;7.20;99.90;;;;;;5007657;28;20120;-73
2022/03/30 08:44:46;;;;;;;1.70;0.65;;;7.30;99.90;;;;;;4995429;28;20042;-73
2022/03/30 08:47:12;;;;;;;0.80;0.80;;;7.50;99.90;;;;;;4987952;28;20045;-73
2022/03/30 08:49:38;;;;;;;0.45;0.45;;;7.50;99.90;;;;;;5008428;28;20735;-73
2022/03/30 08:52:06;;;;;;;0.40;0.38;;;7.70;99.90;;;;;;5009090;28;20092;-73
2022/03/30 08:54:33;;;;;;;0.35;0.35;;;7.70;99.90;;;;;;4991968;28;20045;-73
2022/03/30 08:56:59;;;;;;;0.40;0.40;;;7.80;99.90;;;;;;5007864;28;20046;-73
2022/03/30 08:59:25;;;;;;;0.30;0.30;;;7.90;99.90;;;;;;5008655;28;20049;-73
2022/03/30 09:01:54;;;;;;;2.20;1.05;;;7.90;99.90;;;;;;4991543;28;20077;-73
2022/03/30 09:04:20;;;;;;;0.28;0.28;;;8.00;99.90;;;;;;4990298;28;20104;-73
2022/03/30 09:06:49;;;;;;;0.38;0.38;;;8.10;99.90;;;;;;4990432;28;20089;-73
2022/03/30 09:09:18;;;;;;;0.40;0.40;;;8.20;99.90;;;;;;5007598;28;20042;-73
2022/03/30 09:12:04;;;;;;;0.30;0.30;;;8.30;99.90;;;;;;4987933;28;20394;-73
2022/03/30 09:14:33;;;;;;;0.30;0.30;;;8.40;99.90;;;;;;5005378;28;20046;-73
2022/03/30 09:17:02;;;;;;;1.42;0.57;;;8.50;99.90;;;;;;4991571;28;20049;-73
2022/03/30 09:19:39;;;;;;;0.60;0.60;;;8.50;99.90;;;;;;5004884;28;20050;-73
2022/03/30 09:22:07;;;;;;;0.45;0.45;;;8.60;99.90;;;;;;5007973;28;20095;-73
2022/03/30 09:24:38;;;;;;;0.43;0.43;;;8.70;99.90;;;;;;5009447;28;20575;-73
2022/03/30 09:27:06;;;;;;;3.65;1.15;;;8.70;99.90;;;;;;4992410;28;20402;-73
2022/03/30 09:29:33;;;;;;;0.43;0.43;;;8.60;99.90;;;;;;4991057;28;20081;-73
2022/03/30 09:32:06;;;;;;;2.20;0.80;;;8.50;99.90;;;;;;5010262;28;20045;-74
2022/03/30 09:34:35;;;;;;;;;;;8.50;99.90;;;;;;5013472;28;20053;-73
2022/03/30 09:37:02;;;;;;;0.20;0.20;;;8.50;99.90;;;;;;5026588;28;19932;-73
2022/03/30 09:39:36;;;;;;;1.17;0.50;;;8.50;99.90;;;;;;4992996;28;20686;-74
2022/03/30 09:42:05;;;;;;;0.60;0.60;;;8.60;99.90;;;;;;5005528;28;20045;-72
2022/03/30 09:44:47;;;;;;;0.28;0.28;;;8.60;99.90;;;;;;5010863;28;20058;-72
2022/03/30 09:47:13;;;;;;;1.88;0.68;;;8.70;99.90;;;;;;5010636;28;20552;-72
2022/03/30 09:49:45;;;;;;;4.63;0.70;;;8.60;99.90;;;;;;4991746;28;20429;-72
2022/03/30 09:52:24;;;;;;;0.47;0.47;;;8.60;99.90;;;;;;5014301;28;20095;-72
2022/03/30 09:54:54;;;;;;;0.57;0.57;;;8.70;99.90;;;;;;4994453;28;20049;-72
2022/03/30 09:57:23;;;;;;;0.30;0.30;;;8.90;99.90;;;;;;5010625;28;20048;-72
2022/03/30 10:00:16;;;;;;;10.30;0.88;;;9.10;99.90;;;;;;4994362;28;20073;-72
2022/03/30 10:02:47;;;;;;;1.13;0.70;;;9.20;98.90;;;;;;5008500;28;20327;-72
2022/03/30 10:05:17;;;;;;;0.20;0.20;;;9.30;97.20;;;;;;4990999;28;20076;-72
2022/03/30 10:07:45;;;;;;;0.30;0.30;;;9.30;99.30;;;;;;4999678;28;20132;-72
2022/03/30 10:10:12;;;;;;;0.40;0.40;;;9.40;98.50;;;;;;5003404;28;20115;-72
2022/03/30 10:12:38;;;;;;;2.38;0.90;;;9.20;97.20;;;;;;5010604;28;20041;-72
2022/03/30 10:15:05;;;;;;;0.93;0.68;;;9.20;97.30;;;;;;4989894;28;20041;-73
2022/03/30 10:17:32;;;;;;;0.40;0.40;;;9.30;97.70;;;;;;4987074;28;20099;-73
2022/03/30 10:20:01;;;;;;;1.08;0.50;;;9.30;98.40;;;;;;5006175;28;20077;-72
2022/03/30 10:23:08;;;;;;;0.50;0.50;;;9.40;99.00;;;;;;5008957;28;20404;-73
2022/03/30 10:26:06;;;;;;;0.30;0.30;;;9.40;99.60;;;;;;5010110;28;20420;-72
2022/03/30 10:28:40;;;;;;;0.50;0.50;;;9.30;99.10;;;;;;5009511;28;20037;-73
2022/03/30 10:31:07;;;;;;;3.40;0.70;;;9.30;99.90;;;;;;5006595;28;20037;-72
2022/03/30 10:33:40;;;;;;;4.40;0.88;;;9.20;95.80;;;;;;5022206;28;20497;-72
2022/03/30 10:36:29;;;;;;;4.22;1.05;;;9.00;96.70;;;;;;5007724;28;20042;-72
2022/03/30 10:39:14;;;;;;;3.60;0.85;;;9.00;97.30;;;;;;4983379;28;20056;-72
2022/03/30 10:42:10;;;;;;;0.60;0.47;;;8.90;97.20;;;;;;5014211;28;20041;-72
2022/03/30 10:44:46;;;;;;;5.07;0.47;;;9.00;96.50;;;;;;4992163;28;20131;-72
2022/03/30 10:47:12;;;;;;;0.30;0.30;;;9.00;98.70;;;;;;5009449;28;20072;-73
2022/03/30 10:49:40;;;;;;;6.93;1.27;;;9.20;98.10;;;;;;5010197;28;20160;-72
2022/03/30 10:52:31;;;;;;;1.05;0.82;;;9.30;98.10;;;;;;4991992;28;20688;-72
2022/03/30 10:55:12;;;;;;;1.00;0.90;;;9.50;97.80;;;;;;4990793;28;20048;-72
2022/03/30 10:58:01;;;;;;;0.88;0.88;;;9.60;96.00;;;;;;5010242;28;20049;-72
2022/03/30 11:00:36;;;;;;;0.70;0.60;;;9.60;96.80;;;;;;4993374;28;20037;-72
2022/03/30 11:03:12;;;;;;;5.28;1.25;;;9.60;97.20;;;;;;5009752;28;20497;-72
2022/03/30 11:05:42;;;;;;;0.73;0.73;;;9.70;96.40;;;;;;5006090;28;20042;-72
2022/03/30 11:08:34;;;;;;;1.77;0.98;;;9.70;95.70;;;;;;5006035;28;20565;-72
2022/03/30 11:11:26;;;;;;;2.05;0.95;;;9.70;93.40;;;;;;5008913;28;20049;-71
2022/03/30 11:14:20;;;;;;;1.52;0.65;;;9.50;92.60;;;;;;5008590;28;20057;-72
2022/03/30 11:16:48;;;;;;;4.75;0.85;;;9.20;94.50;;;;;;5009022;28;20050;-72
2022/03/30 11:19:14;;;;;;;2.40;0.52;;;8.90;94.60;;;;;;5009873;28;20053;-72
2022/03/30 11:21:51;;;;;;;1.33;0.70;;;8.60;94.70;;;;;;4992985;28;20037;-71
2022/03/30 11:24:24;;;;;;;0.52;0.40;;;8.40;94.40;;;;;;4985070;28;20056;-73
2022/03/30 11:26:50;;;;;;;0.25;0.25;;;8.20;95.40;;;;;;5003467;28;20057;-73
2022/03/30 11:29:41;;;;;;;10.98;0.60;;;8.10;94.90;;;;;;5007747;28;20049;-72
2022/03/30 11:32:19;;;;;;;0.85;0.68;;;8.10;95.80;;;;;;4993167;28;20081;-73
2022/03/30 11:34:49;;;;;;;0.45;0.45;;;8.20;95.70;;;;;;5010271;28;20473;-73
2022/03/30 11:37:15;;;;;;;3.13;0.68;;;8.30;93.90;;;;;;5012756;28;20458;-72
2022/03/30 11:39:41;;;;;;;0.35;0.35;;;8.30;94.40;;;;;;4995471;28;20489;-72
2022/03/30 11:42:07;;;;;;;0.65;0.65;;;8.30;94.60;;;;;;5012766;28;20103;-72
2022/03/30 11:47:25;;;;;;;1.38;1.05;;;8.50;95.40;;;;;;4995484;28;20045;-73
2022/03/30 11:49:59;;;;;;;0.88;0.68;;;8.70;94.00;;;;;;4992755;28;20045;-72
2022/03/30 11:52:25;;;;;;;0.57;0.57;;;8.70;93.30;;;;;;5007846;28;20120;-73
2022/03/30 11:54:53;;;;;;;0.30;0.30;;;8.80;93.50;;;;;;5005287;28;20171;-72
2022/03/30 11:57:21;;;;;;;0.40;0.40;;;8.90;92.30;;;;;;4993921;28;20046;-73
2022/03/30 11:59:57;;;;;;;1.45;0.70;;;8.90;91.30;;;;;;5018843;28;20045;-72
2022/03/30 12:02:26;;;;;;;2.05;0.80;;;9.10;91.10;;;;;;5014662;28;20041;-72
2022/03/30 12:04:56;;;;;;;1.15;0.73;;;9.30;91.20;;;;;;5012450;28;20505;-71
2022/03/30 12:07:23;;;;;;;1.60;1.17;;;9.40;90.50;;;;;;5006807;28;20077;-71
2022/03/30 12:09:56;;;;;;;1.45;0.82;;;9.60;89.70;;;;;;5012150;28;20076;-72
2022/03/30 12:12:36;;;;;;;0.80;0.55;;;9.70;85.90;;;;;;5012141;28;20091;-72
2022/03/30 12:15:12;;;;;;;2.50;0.75;;;9.50;83.40;;;;;;5011630;28;20045;-72
2022/03/30 12:17:39;;;;;;;0.30;0.30;;;9.50;87.20;;;;;;4996029;28;20128;-73
2022/03/30 12:20:07;;;;;;;0.57;0.57;;;9.60;90.30;;;;;;5010668;28;20132;-73
2022/03/30 12:22:34;;;;;;;0.47;0.47;;;9.70;89.40;;;;;;5010391;28;20501;-72
2022/03/30 12:25:00;;;;;;;1.15;1.05;;;9.80;90.60;;;;;;5011983;28;20068;-72
2022/03/30 12:27:26;;;;;;;1.98;0.63;;;10.10;82.40;;;;;;5011596;28;20061;-72
2022/03/30 12:29:57;;;;;;;1.20;0.63;;;10.00;84.10;;;;;;5011538;28;20042;-72
2022/03/30 12:32:24;;;;;;;0.20;0.20;;;10.10;83.20;;;;;;5008401;28;20038;-72
2022/03/30 12:35:05;;;;;;;0.30;0.30;;;10.20;83.90;;;;;;5011775;28;20044;-72
2022/03/30 12:37:31;;;;;;;1.92;0.40;;;10.20;86.70;;;;;;5007564;28;20072;-72
2022/03/30 12:40:07;;;;;;;0.40;0.40;;;10.10;81.80;;;;;;5000829;28;20075;-72
2022/03/30 12:42:33;;;;;;;6.28;1.20;;;9.70;79.90;;;;;;4986086;28;20042;-72
2022/03/30 12:45:05;;;;;;;0.80;0.80;;;9.50;84.10;;;;;;5010915;28;20037;-73
2022/03/30 12:47:46;;;;;;;1.73;0.52;;;9.60;86.80;;;;;;4994756;28;20041;-73
2022/03/30 12:50:16;;;;;;;0.60;0.55;;;9.60;83.10;;;;;;4994537;28;20120;-73
2022/03/30 12:52:45;;;;;;;0.52;0.40;;;9.50;78.80;;;;;;5009982;28;20508;-73
2022/03/30 12:55:33;;;;;;;5.22;1.55;;;9.20;80.80;;;;;;5011804;28;20045;-73
2022/03/30 12:58:20;;;;;;;0.90;0.90;;;9.20;82.60;;;;;;5010205;28;20081;-72
2022/03/30 13:00:46;;;;;;;1.48;0.47;;;9.20;84.90;;;;;;4990345;28;20049;-73
2022/03/30 13:03:18;;;;;;;1.55;0.40;;;9.40;85.70;;;;;;4991849;28;20406;-72
2022/03/30 13:05:49;;;;;;;0.40;0.40;;;9.40;85.20;;;;;;4985957;28;20405;-73
2022/03/30 13:08:18;;;;;;;0.45;0.45;;;9.30;86.40;;;;;;4991803;28;20082;-73
2022/03/30 13:11:01;;;;;;;0.20;0.20;;;9.40;87.80;;;;;;4995849;28;20037;-73
2022/03/30 13:13:33;;;;;;;0.40;0.40;;;9.40;86.00;;;;;;5011529;28;20038;-73